Time;durP1;ratioP1;P1;durP2;ratioP2;P2;SDS_P1;SDS_P2;PMS_P1;PMS_P2;Temp;Humidity;BMP_temperature;BMP_pressure;BME280_temperature;BME280_humidity;BME280_pressure;Samples;Min_cycle;Max_cycle;Signal;HPM_P1;HPM_P2
2022/11/21 00:00:26;;;;;;;2.88;1.23;;;8.10;72.20;;;;;;5082991;28;20036;-64
2022/11/21 00:02:52;;;;;;;1.92;1.17;;;8.10;72.30;;;;;;5086925;28;20044;-63
2022/11/21 00:05:17;;;;;;;1.20;1.02;;;8.10;72.40;;;;;;5082026;28;20033;-64
2022/11/21 00:07:44;;;;;;;2.75;1.00;;;8.20;72.30;;;;;;5084648;28;20029;-64
2022/11/21 00:10:12;;;;;;;1.63;1.02;;;8.20;72.10;;;;;;5083311;28;20021;-64
2022/11/21 00:12:39;;;;;;;3.75;1.55;;;8.20;72.00;;;;;;5084523;28;20043;-64
2022/11/21 00:15:06;;;;;;;2.38;1.20;;;8.20;71.80;;;;;;5081393;28;20060;-64
2022/11/21 00:17:32;;;;;;;1.55;1.10;;;8.20;71.80;;;;;;5091085;28;20084;-63
2022/11/21 00:19:58;;;;;;;0.98;0.98;;;8.20;71.80;;;;;;5076547;28;20068;-65
2022/11/21 00:22:23;;;;;;;1.52;1.08;;;8.20;71.70;;;;;;5087911;28;20031;-63
2022/11/21 00:24:49;;;;;;;1.33;1.00;;;8.20;71.80;;;;;;5080871;28;20541;-65
2022/11/21 00:27:15;;;;;;;1.52;1.00;;;8.20;71.70;;;;;;5094712;28;20028;-64
2022/11/21 00:29:40;;;;;;;1.15;0.98;;;8.20;71.70;;;;;;5084799;28;20016;-63
2022/11/21 00:32:06;;;;;;;2.15;1.08;;;8.20;71.70;;;;;;5074655;28;20024;-65
2022/11/21 00:34:31;;;;;;;1.88;1.20;;;8.20;71.70;;;;;;5079286;28;20056;-64
2022/11/21 00:36:57;;;;;;;1.05;1.05;;;8.10;71.50;;;;;;5081491;28;20020;-63
2022/11/21 00:39:23;;;;;;;1.33;0.90;;;8.20;71.60;;;;;;5089377;28;20032;-64
2022/11/21 00:41:49;;;;;;;1.10;1.10;;;8.10;71.50;;;;;;5095130;28;20024;-64
2022/11/21 00:44:14;;;;;;;1.00;0.98;;;8.10;71.50;;;;;;5091689;28;20031;-64
2022/11/21 00:46:40;;;;;;;1.95;1.10;;;8.10;71.50;;;;;;5088907;28;20020;-63
2022/11/21 00:49:05;;;;;;;1.20;1.10;;;8.10;71.60;;;;;;5082121;28;20490;-64
2022/11/21 00:51:31;;;;;;;1.00;1.00;;;8.10;71.50;;;;;;5083359;28;20518;-63
2022/11/21 00:53:57;;;;;;;1.10;1.00;;;8.10;71.50;;;;;;5078153;28;20096;-63
2022/11/21 00:56:22;;;;;;;1.02;0.98;;;8.10;71.60;;;;;;5085777;28;20051;-64
2022/11/21 00:58:48;;;;;;;2.47;1.00;;;8.10;71.60;;;;;;5083556;28;20024;-63
2022/11/21 01:01:15;;;;;;;2.13;1.20;;;8.10;71.60;;;;;;5079311;28;20025;-64
2022/11/21 01:03:41;;;;;;;3.28;1.02;;;8.10;71.60;;;;;;5091090;28;20036;-64
2022/11/21 01:06:12;;;;;;;1.58;1.08;;;8.10;71.60;;;;;;5071978;28;20025;-64
2022/11/21 01:08:40;;;;;;;1.10;1.00;;;8.00;71.50;;;;;;5074071;28;20032;-62
2022/11/21 01:11:09;;;;;;;1.70;0.90;;;8.00;71.60;;;;;;5086539;28;20054;-63
2022/11/21 01:13:35;;;;;;;1.55;1.10;;;8.00;71.80;;;;;;5083544;28;20039;-64
2022/11/21 01:16:03;;;;;;;3.05;1.40;;;8.00;71.90;;;;;;5074459;28;20027;-63
2022/11/21 01:18:29;;;;;;;1.63;1.20;;;8.00;71.90;;;;;;5080807;28;20027;-64
2022/11/21 01:20:59;;;;;;;0.90;0.90;;;8.00;72.10;;;;;;5084285;28;20075;-64
2022/11/21 01:23:26;;;;;;;1.17;0.93;;;8.00;72.30;;;;;;5079829;28;20447;-64
2022/11/21 01:25:53;;;;;;;0.90;0.90;;;8.00;72.30;;;;;;5083020;28;20029;-63
2022/11/21 01:28:18;;;;;;;1.02;0.90;;;8.00;72.20;;;;;;5076722;28;20095;-62
2022/11/21 01:30:44;;;;;;;1.20;1.10;;;7.90;72.20;;;;;;5083243;28;20024;-64
2022/11/21 01:33:10;;;;;;;1.20;1.10;;;7.90;72.10;;;;;;5076888;28;20055;-65
2022/11/21 01:35:35;;;;;;;2.10;1.10;;;7.90;72.20;;;;;;5081572;28;20682;-64
2022/11/21 01:38:01;;;;;;;0.90;0.90;;;7.80;72.00;;;;;;5076823;28;20036;-64
2022/11/21 01:40:27;;;;;;;1.45;1.13;;;7.80;72.10;;;;;;5089140;28;20028;-63
2022/11/21 01:42:57;;;;;;;1.88;1.20;;;7.80;72.20;;;;;;5086272;28;20025;-65
2022/11/21 01:45:55;;;;;;;1.33;1.23;;;7.80;72.40;;;;;;5087308;28;20020;-62
2022/11/21 01:48:45;;;;;;;2.95;1.10;;;7.70;72.50;;;;;;5080193;28;20063;-65
2022/11/21 01:51:49;;;;;;;1.75;0.90;;;7.70;72.60;;;;;;5091851;28;20035;-63
2022/11/21 01:54:30;;;;;;;1.17;1.00;;;7.70;72.80;;;;;;5079994;28;20073;-64
2022/11/21 01:57:08;;;;;;;1.83;1.10;;;7.70;72.40;;;;;;5084818;28;20071;-63
2022/11/21 01:59:46;;;;;;;1.30;1.00;;;7.70;72.60;;;;;;5083270;28;20025;-64
2022/11/21 02:02:14;;;;;;;2.13;1.10;;;7.60;72.50;;;;;;5074335;28;20029;-63
2022/11/21 02:04:42;;;;;;;2.25;1.30;;;7.60;72.40;;;;;;5071023;28;20033;-63
2022/11/21 02:07:09;;;;;;;2.97;1.17;;;7.60;72.50;;;;;;5079285;28;20066;-65
2022/11/21 02:09:39;;;;;;;2.60;1.00;;;7.60;72.50;;;;;;5083961;28;20103;-63
2022/11/21 02:12:12;;;;;;;1.92;1.27;;;7.60;72.50;;;;;;5064868;28;20037;-63
2022/11/21 02:14:40;;;;;;;1.77;1.15;;;7.50;72.60;;;;;;5083941;28;20024;-62
2022/11/21 02:17:08;;;;;;;3.22;1.15;;;7.50;72.70;;;;;;5082988;28;20098;-62
2022/11/21 02:19:58;;;;;;;1.55;0.90;;;7.50;72.70;;;;;;5084348;28;20029;-62
2022/11/21 02:22:44;;;;;;;1.60;1.15;;;7.50;73.00;;;;;;5069766;28;20027;-64
2022/11/21 02:25:26;;;;;;;0.93;0.90;;;7.50;72.90;;;;;;5067078;28;20028;-64
2022/11/21 02:27:56;;;;;;;2.53;1.05;;;7.50;72.80;;;;;;5083331;28;20467;-65
2022/11/21 02:30:22;;;;;;;3.50;1.30;;;7.50;72.80;;;;;;5083737;28;20055;-65
2022/11/21 02:32:48;;;;;;;1.48;1.30;;;7.50;72.80;;;;;;5082826;28;20041;-64
2022/11/21 02:35:16;;;;;;;1.75;1.10;;;7.50;72.80;;;;;;5087815;28;20021;-64
2022/11/21 02:37:44;;;;;;;1.25;1.10;;;7.50;72.80;;;;;;5084778;28;20052;-66
2022/11/21 02:40:24;;;;;;;2.50;1.17;;;7.50;72.80;;;;;;5080558;28;20034;-62
2022/11/21 02:42:52;;;;;;;2.20;1.27;;;7.50;72.90;;;;;;5089893;28;20064;-65
2022/11/21 02:45:39;;;;;;;3.25;1.20;;;7.50;72.90;;;;;;5080160;28;20052;-63
2022/11/21 02:48:07;;;;;;;4.25;1.30;;;7.50;73.10;;;;;;5068887;28;20048;-65
2022/11/21 02:50:35;;;;;;;3.38;1.70;;;7.50;72.60;;;;;;5081329;28;20024;-63
2022/11/21 02:53:02;;;;;;;1.67;1.23;;;7.50;72.60;;;;;;5078686;28;20041;-64
2022/11/21 02:55:28;;;;;;;2.53;1.33;;;7.50;72.60;;;;;;5088557;28;20056;-63
2022/11/21 02:57:54;;;;;;;4.25;1.40;;;7.40;72.50;;;;;;5081142;28;20052;-64
2022/11/21 03:00:20;;;;;;;3.50;1.50;;;7.40;72.70;;;;;;5090259;28;20043;-63
2022/11/21 03:02:46;;;;;;;1.85;1.23;;;7.40;72.90;;;;;;5095358;28;20459;-64
2022/11/21 03:05:14;;;;;;;3.53;1.40;;;7.40;72.90;;;;;;5098293;28;20028;-64
2022/11/21 03:07:41;;;;;;;3.13;1.25;;;7.40;72.90;;;;;;5077407;28;20078;-64
2022/11/21 03:10:07;;;;;;;4.30;1.70;;;7.40;72.80;;;;;;5080854;28;20056;-63
2022/11/21 03:12:40;;;;;;;1.75;1.25;;;7.30;72.80;;;;;;5079399;28;20477;-64
2022/11/21 03:15:08;;;;;;;3.15;2.00;;;7.30;72.80;;;;;;5088623;28;20036;-64
2022/11/21 03:17:34;;;;;;;5.50;1.88;;;7.30;72.90;;;;;;5088788;28;20051;-65
2022/11/21 03:20:00;;;;;;;2.80;1.38;;;7.30;73.00;;;;;;5082758;28;20028;-64
2022/11/21 03:22:26;;;;;;;1.92;1.27;;;7.30;72.80;;;;;;5096652;28;20036;-64
2022/11/21 03:24:52;;;;;;;1.42;1.30;;;7.30;72.90;;;;;;5088096;28;20078;-65
2022/11/21 03:27:18;;;;;;;2.65;1.10;;;7.20;72.80;;;;;;5084809;28;20032;-64
2022/11/21 03:29:43;;;;;;;4.07;1.20;;;7.20;73.00;;;;;;5085744;28;20047;-64
2022/11/21 03:32:09;;;;;;;2.15;1.27;;;7.30;72.90;;;;;;5083659;28;20036;-63
2022/11/21 03:34:35;;;;;;;2.08;1.10;;;7.20;72.70;;;;;;5092916;28;20092;-63
2022/11/21 03:37:01;;;;;;;2.42;1.10;;;7.20;72.70;;;;;;5086645;28;20039;-63
2022/11/21 03:39:28;;;;;;;2.38;1.10;;;7.10;72.60;;;;;;5083001;28;20047;-65
2022/11/21 03:41:53;;;;;;;2.60;1.08;;;7.10;72.90;;;;;;5089271;28;20088;-64
2022/11/21 03:44:19;;;;;;;3.85;1.10;;;7.10;73.00;;;;;;5086443;28;20059;-64
2022/11/21 03:46:45;;;;;;;1.15;0.85;;;7.00;72.90;;;;;;5081834;28;20029;-64
2022/11/21 03:49:11;;;;;;;2.47;1.20;;;7.00;72.90;;;;;;5081755;28;20048;-65
2022/11/21 03:51:37;;;;;;;3.83;1.30;;;7.00;73.10;;;;;;5085254;28;20029;-63
2022/11/21 03:54:04;;;;;;;2.25;1.00;;;7.10;73.20;;;;;;5079760;28;20036;-64
2022/11/21 03:56:30;;;;;;;1.85;1.20;;;7.00;73.20;;;;;;5081535;28;20032;-65
2022/11/21 03:58:57;;;;;;;2.05;1.00;;;7.10;73.20;;;;;;5076248;28;20035;-64
2022/11/21 04:01:23;;;;;;;1.30;1.10;;;7.00;73.20;;;;;;5082740;28;20055;-65
2022/11/21 04:03:50;;;;;;;1.50;1.05;;;7.00;73.00;;;;;;5077365;28;20024;-64
2022/11/21 04:06:18;;;;;;;1.33;1.10;;;7.00;73.10;;;;;;5088638;28;20028;-66
2022/11/21 04:08:44;;;;;;;1.20;1.05;;;7.00;73.10;;;;;;5096963;28;20031;-64
2022/11/21 04:11:10;;;;;;;3.90;1.27;;;7.00;73.20;;;;;;5083759;28;20048;-64
2022/11/21 04:13:36;;;;;;;1.45;0.98;;;7.00;73.20;;;;;;5076365;28;20040;-65
2022/11/21 04:16:01;;;;;;;1.20;1.10;;;7.00;73.00;;;;;;5082200;28;20367;-65
2022/11/21 04:18:27;;;;;;;1.40;1.10;;;7.00;73.00;;;;;;5080323;28;20021;-64
2022/11/21 04:21:04;;;;;;;1.35;1.10;;;7.00;73.10;;;;;;5075237;28;20069;-65
2022/11/21 04:23:30;;;;;;;1.30;1.05;;;6.90;73.20;;;;;;5081108;28;20031;-65
2022/11/21 04:25:56;;;;;;;1.38;1.00;;;7.00;73.30;;;;;;5077147;28;20034;-65
2022/11/21 04:28:22;;;;;;;1.10;0.95;;;6.90;73.40;;;;;;5085935;28;20399;-64
2022/11/21 04:30:48;;;;;;;1.83;1.10;;;7.00;73.20;;;;;;5074071;28;20027;-65
2022/11/21 04:33:17;;;;;;;6.72;1.00;;;7.00;73.40;;;;;;5089584;28;20119;-64
2022/11/21 04:35:44;;;;;;;1.40;0.98;;;6.90;73.50;;;;;;5085333;28;20029;-64
2022/11/21 04:38:11;;;;;;;2.10;1.00;;;7.00;73.70;;;;;;5086882;28;20027;-64
2022/11/21 04:40:37;;;;;;;2.78;1.10;;;7.00;73.70;;;;;;5079362;28;20021;-64
2022/11/21 04:43:03;;;;;;;1.40;1.00;;;7.00;73.70;;;;;;5078121;28;20024;-64
2022/11/21 04:45:29;;;;;;;1.42;1.10;;;7.00;73.80;;;;;;5081083;28;20616;-64
2022/11/21 04:47:55;;;;;;;1.88;1.10;;;7.00;73.90;;;;;;5079477;28;20075;-64
2022/11/21 04:50:22;;;;;;;1.77;0.98;;;7.10;73.90;;;;;;5086646;28;20060;-64
2022/11/21 04:52:55;;;;;;;2.63;1.35;;;7.10;73.90;;;;;;5081462;28;20035;-63
2022/11/21 04:55:23;;;;;;;1.17;1.08;;;7.10;74.10;;;;;;5083537;28;20032;-65
2022/11/21 04:57:49;;;;;;;3.83;1.08;;;7.20;74.00;;;;;;5076917;28;20044;-65
2022/11/21 05:00:16;;;;;;;2.28;1.20;;;7.20;74.00;;;;;;5085617;28;20039;-64
2022/11/21 05:02:41;;;;;;;1.58;1.30;;;7.20;74.20;;;;;;5079010;28;20017;-64
2022/11/21 05:05:08;;;;;;;3.60;1.10;;;7.20;74.20;;;;;;5086060;28;20020;-63
2022/11/21 05:07:33;;;;;;;1.63;1.20;;;7.30;74.20;;;;;;5080216;28;20032;-63
2022/11/21 05:09:59;;;;;;;2.40;1.20;;;7.30;74.10;;;;;;5081337;28;20028;-63
2022/11/21 05:15:09;;;;;;;2.60;1.35;;;7.40;74.00;;;;;;5083252;28;20106;-64
2022/11/21 05:17:35;;;;;;;2.25;1.60;;;7.40;74.00;;;;;;5073284;28;20032;-64
2022/11/21 05:20:01;;;;;;;1.23;1.13;;;7.40;74.00;;;;;;5080614;28;20024;-64
2022/11/21 05:22:27;;;;;;;4.53;1.67;;;7.40;74.10;;;;;;5086192;28;20028;-64
2022/11/21 05:24:52;;;;;;;8.23;3.78;;;7.50;74.10;;;;;;5074276;28;20028;-64
2022/11/21 05:27:18;;;;;;;3.05;1.80;;;7.50;74.20;;;;;;5087792;28;20046;-64
2022/11/21 05:29:44;;;;;;;3.10;1.60;;;7.50;74.20;;;;;;5083320;28;20078;-65
2022/11/21 05:32:10;;;;;;;2.65;1.40;;;7.50;74.20;;;;;;5081543;28;20024;-63
2022/11/21 05:34:35;;;;;;;1.90;1.27;;;7.50;74.20;;;;;;5080669;28;20403;-65
2022/11/21 05:37:01;;;;;;;2.95;1.60;;;7.50;74.30;;;;;;5077687;28;20877;-64
2022/11/21 05:39:27;;;;;;;2.95;1.70;;;7.50;74.20;;;;;;5081465;28;20028;-64
2022/11/21 05:41:53;;;;;;;7.28;2.95;;;7.60;74.30;;;;;;5066287;28;20021;-64
2022/11/21 05:44:19;;;;;;;3.92;2.53;;;7.60;74.30;;;;;;5076656;28;20052;-64
2022/11/21 05:46:45;;;;;;;3.08;1.90;;;7.60;74.30;;;;;;5072961;28;20044;-64
2022/11/21 05:49:11;;;;;;;3.60;1.98;;;7.60;74.30;;;;;;5080431;28;20033;-64
2022/11/21 05:51:37;;;;;;;5.22;2.35;;;7.60;74.30;;;;;;5071242;28;20020;-64
2022/11/21 05:54:03;;;;;;;3.13;2.20;;;7.60;74.30;;;;;;5082826;28;20036;-64
2022/11/21 05:56:29;;;;;;;2.47;1.95;;;7.60;74.30;;;;;;5090993;28;20043;-63
2022/11/21 05:58:55;;;;;;;3.20;1.65;;;7.60;74.20;;;;;;5085386;28;20025;-64
2022/11/21 06:04:07;;;;;;;2.20;1.40;;;7.60;74.30;;;;;;5068007;28;20044;-65
2022/11/21 06:06:33;;;;;;;3.38;2.80;;;7.60;74.20;;;;;;5074159;28;20024;-65
2022/11/21 06:08:59;;;;;;;3.47;2.05;;;7.60;74.10;;;;;;5076801;28;20025;-64
2022/11/21 06:11:25;;;;;;;5.68;2.53;;;7.60;73.90;;;;;;5075911;28;20526;-64
2022/11/21 06:13:54;;;;;;;4.03;2.90;;;7.60;73.90;;;;;;5079434;28;20040;-65
2022/11/21 06:16:20;;;;;;;3.65;2.65;;;7.60;74.20;;;;;;5094541;28;20078;-64
2022/11/21 06:18:53;;;;;;;6.55;2.90;;;7.60;74.30;;;;;;5072473;28;20040;-64
2022/11/21 06:21:21;;;;;;;3.03;2.03;;;7.60;74.50;;;;;;5081495;28;20156;-64
2022/11/21 06:23:50;;;;;;;2.75;1.80;;;7.60;74.50;;;;;;5076714;28;20123;-63
2022/11/21 06:26:18;;;;;;;4.53;1.70;;;7.60;74.30;;;;;;5087566;28;20396;-64
2022/11/21 06:28:45;;;;;;;3.22;1.67;;;7.60;74.20;;;;;;5085792;28;20026;-64
2022/11/21 06:31:14;;;;;;;3.55;1.92;;;7.60;74.20;;;;;;5079576;28;20097;-64
2022/11/21 06:33:41;;;;;;;3.00;1.60;;;7.60;74.30;;;;;;5086231;28;20033;-64
2022/11/21 06:36:12;;;;;;;2.15;1.50;;;7.60;74.20;;;;;;5079631;28;20045;-64
2022/11/21 06:38:38;;;;;;;2.38;1.30;;;7.60;74.10;;;;;;5083283;28;20584;-64
2022/11/21 06:41:09;;;;;;;2.58;1.17;;;7.60;74.10;;;;;;5083528;28;20029;-64
2022/11/21 06:43:36;;;;;;;1.30;1.10;;;7.60;74.00;;;;;;5083014;28;20059;-64
2022/11/21 06:46:04;;;;;;;2.10;1.80;;;7.60;73.90;;;;;;5076195;28;20055;-65
2022/11/21 06:48:31;;;;;;;3.35;1.50;;;7.70;74.00;;;;;;5084958;28;20049;-62
2022/11/21 06:50:57;;;;;;;1.45;1.35;;;7.70;73.90;;;;;;5089307;28;20021;-65
2022/11/21 06:53:23;;;;;;;5.82;1.52;;;7.70;73.70;;;;;;5086206;28;20116;-65
2022/11/21 06:55:48;;;;;;;3.88;1.30;;;7.70;73.40;;;;;;5090315;28;20040;-64
2022/11/21 06:58:14;;;;;;;2.13;1.30;;;7.70;73.20;;;;;;5091470;28;20081;-63
2022/11/21 07:00:40;;;;;;;3.00;1.10;;;7.70;73.30;;;;;;5077233;28;20032;-64
2022/11/21 07:03:05;;;;;;;3.38;1.15;;;7.70;73.20;;;;;;5085915;28;20033;-64
2022/11/21 07:05:32;;;;;;;2.65;1.20;;;7.70;73.20;;;;;;5083309;28;20024;-66
2022/11/21 07:08:02;;;;;;;2.47;1.30;;;7.70;73.20;;;;;;5079719;28;20035;-69
2022/11/21 07:10:29;;;;;;;5.38;1.42;;;7.70;73.20;;;;;;5078736;28;20024;-68
2022/11/21 07:15:47;;;;;;;1.58;1.17;;;7.80;72.90;;;;;;5081895;28;20040;-68
2022/11/21 07:18:13;;;;;;;3.67;1.48;;;7.80;72.90;;;;;;5077832;28;20020;-68
2022/11/21 07:20:40;;;;;;;3.42;1.20;;;7.80;72.90;;;;;;5081470;28;20029;-68
2022/11/21 07:23:06;;;;;;;3.40;1.40;;;7.80;72.90;;;;;;5076313;28;20017;-68
2022/11/21 07:25:32;;;;;;;2.20;1.20;;;7.80;72.90;;;;;;5088996;28;20035;-67
2022/11/21 07:27:59;;;;;;;2.03;1.10;;;7.80;72.90;;;;;;5084528;28;20900;-67
2022/11/21 07:30:25;;;;;;;4.63;1.35;;;7.80;72.90;;;;;;5073754;28;20054;-68
2022/11/21 07:33:02;;;;;;;3.03;1.40;;;7.80;73.00;;;;;;5079195;28;20093;-67
2022/11/21 07:35:28;;;;;;;1.70;1.10;;;7.80;73.10;;;;;;5078093;28;20033;-68
2022/11/21 07:37:54;;;;;;;3.30;1.63;;;7.90;72.80;;;;;;5076211;28;20028;-67
2022/11/21 07:40:20;;;;;;;4.28;1.27;;;7.90;72.70;;;;;;5080457;28;20112;-66
2022/11/21 07:42:46;;;;;;;3.03;1.15;;;7.90;72.30;;;;;;5076215;28;20067;-66
2022/11/21 07:45:14;;;;;;;3.63;1.15;;;7.80;71.80;;;;;;5081696;28;20029;-66
2022/11/21 07:47:40;;;;;;;2.53;0.90;;;7.80;71.70;;;;;;5075888;28;20037;-66
2022/11/21 07:50:07;;;;;;;3.22;1.20;;;7.80;71.80;;;;;;5084839;28;20104;-67
2022/11/21 07:52:33;;;;;;;3.72;1.40;;;7.70;71.90;;;;;;5078352;28;20076;-67
2022/11/21 07:55:01;;;;;;;3.15;1.33;;;7.70;72.20;;;;;;5074640;28;20048;-68
2022/11/21 07:57:27;;;;;;;3.97;1.42;;;7.70;72.40;;;;;;5072824;28;20028;-68
2022/11/21 07:59:53;;;;;;;1.80;1.17;;;7.70;72.60;;;;;;5087778;28;20107;-68
2022/11/21 08:02:20;;;;;;;2.83;1.38;;;7.70;72.70;;;;;;5076213;28;20895;-67
2022/11/21 08:04:46;;;;;;;5.30;1.40;;;7.70;72.80;;;;;;5082265;28;20046;-67
2022/11/21 08:07:13;;;;;;;2.97;1.42;;;7.70;72.90;;;;;;5089102;28;20036;-68
2022/11/21 08:09:39;;;;;;;3.72;1.13;;;7.70;73.10;;;;;;5072747;28;20099;-69
2022/11/21 08:12:05;;;;;;;2.38;1.10;;;7.80;73.40;;;;;;5081199;28;20455;-67
2022/11/21 08:14:31;;;;;;;1.75;1.13;;;7.90;73.80;;;;;;5078626;28;20112;-68
2022/11/21 08:16:57;;;;;;;3.15;1.00;;;8.00;73.70;;;;;;5085034;28;20029;-68
2022/11/21 08:19:22;;;;;;;2.70;1.13;;;8.10;73.80;;;;;;5071112;28;20016;-68
2022/11/21 08:21:48;;;;;;;2.75;1.20;;;8.20;73.60;;;;;;5080864;28;20024;-68
2022/11/21 08:24:16;;;;;;;3.00;1.10;;;8.30;73.30;;;;;;5083465;28;20032;-67
2022/11/21 08:26:42;;;;;;;0.80;0.70;;;8.30;73.20;;;;;;5085321;28;20029;-67
2022/11/21 08:29:09;;;;;;;1.13;1.05;;;8.40;73.20;;;;;;5078898;28;20420;-68
2022/11/21 08:31:36;;;;;;;1.05;1.00;;;8.50;73.30;;;;;;5087362;28;20032;-69
2022/11/21 08:34:02;;;;;;;3.28;1.00;;;8.50;73.30;;;;;;5092667;28;20028;-68
2022/11/21 08:36:28;;;;;;;2.78;1.50;;;8.60;73.40;;;;;;5083561;28;20026;-67
2022/11/21 08:38:53;;;;;;;2.55;1.52;;;8.60;73.00;;;;;;5086182;28;20033;-68
2022/11/21 08:44:05;;;;;;;4.40;1.38;;;8.60;72.30;;;;;;5072597;28;20036;-67
2022/11/21 08:46:36;;;;;;;6.95;1.55;;;8.60;72.10;;;;;;5085078;28;20052;-69
2022/11/21 08:49:05;;;;;;;3.17;1.60;;;8.60;72.00;;;;;;5084832;28;20045;-68
2022/11/21 08:51:32;;;;;;;3.33;1.77;;;8.50;72.10;;;;;;5090847;28;20024;-67
2022/11/21 08:53:58;;;;;;;4.22;2.10;;;8.50;72.10;;;;;;5084089;28;20044;-68
2022/11/21 08:56:25;;;;;;;5.97;1.98;;;8.40;72.20;;;;;;5079600;28;20041;-68
2022/11/21 08:58:51;;;;;;;4.90;1.75;;;8.40;72.40;;;;;;5073211;28;20091;-67
2022/11/21 09:01:17;;;;;;;3.28;1.63;;;8.40;72.50;;;;;;5079880;28;20020;-68
2022/11/21 09:03:43;;;;;;;2.50;1.52;;;8.30;72.50;;;;;;5099412;28;20422;-66
2022/11/21 09:06:09;;;;;;;2.88;1.80;;;8.30;72.60;;;;;;5075706;28;20029;-68
2022/11/21 09:08:35;;;;;;;2.40;1.27;;;8.30;72.90;;;;;;5082137;28;20451;-68
2022/11/21 09:11:08;;;;;;;2.05;1.40;;;8.30;73.00;;;;;;5085966;28;20036;-68
2022/11/21 09:13:35;;;;;;;3.45;1.42;;;8.30;73.00;;;;;;5084042;28;20032;-68
2022/11/21 09:18:46;;;;;;;3.08;1.45;;;8.40;72.90;;;;;;5085089;28;20060;-67
2022/11/21 09:21:16;;;;;;;5.03;1.50;;;8.40;73.00;;;;;;5081186;28;20021;-67
2022/11/21 09:23:42;;;;;;;3.50;1.58;;;8.40;73.20;;;;;;5081765;28;20032;-67
2022/11/21 09:26:08;;;;;;;6.45;1.50;;;8.40;73.20;;;;;;5087821;28;20092;-68
2022/11/21 09:28:37;;;;;;;3.97;2.00;;;8.50;73.20;;;;;;5077183;28;20020;-67
2022/11/21 09:31:04;;;;;;;3.65;1.80;;;8.50;73.10;;;;;;5087423;28;20130;-67
2022/11/21 09:33:30;;;;;;;3.47;1.60;;;8.60;73.20;;;;;;5087815;28;20063;-68
2022/11/21 09:35:59;;;;;;;4.55;1.92;;;8.60;73.20;;;;;;5075820;28;20484;-67
2022/11/21 09:38:26;;;;;;;4.78;2.10;;;8.60;73.20;;;;;;5085776;28;20028;-66
2022/11/21 09:41:50;;;;;;;5.82;1.90;;;8.60;73.00;;;;;;5073278;28;20029;-67
2022/11/21 09:44:20;;;;;;;2.15;1.30;;;8.70;72.90;;;;;;5082741;28;20036;-67
2022/11/21 09:46:47;;;;;;;4.05;1.50;;;8.70;72.90;;;;;;5021187;28;20038;-69
2022/11/21 09:49:15;;;;;;;3.33;1.52;;;8.80;72.90;;;;;;5025830;28;20054;-67
2022/11/21 09:51:44;;;;;;;3.70;1.42;;;8.80;72.80;;;;;;5019433;28;20057;-67
2022/11/21 09:54:21;;;;;;;3.58;2.67;;;8.80;73.00;;;;;;5000590;28;20042;-68
2022/11/21 09:56:47;;;;;;;6.28;2.05;;;8.90;73.00;;;;;;5020764;28;20120;-67
2022/11/21 09:59:35;;;;;;;2.63;1.38;;;9.00;73.00;;;;;;5023005;28;20036;-68
2022/11/21 10:02:09;;;;;;;3.65;1.63;;;9.00;73.10;;;;;;5016574;28;20550;-67
2022/11/21 10:04:35;;;;;;;3.08;1.50;;;9.20;73.40;;;;;;5008704;28;20117;-67
2022/11/21 10:07:17;;;;;;;3.40;1.65;;;9.30;73.30;;;;;;5017697;28;20135;-67
2022/11/21 10:09:58;;;;;;;4.40;1.38;;;9.30;73.00;;;;;;5025309;28;20044;-67
2022/11/21 10:13:03;;;;;;;3.63;1.45;;;9.50;72.40;;;;;;5025597;28;20450;-67
2022/11/21 10:15:51;;;;;;;3.58;1.30;;;9.60;72.00;;;;;;5025200;28;20042;-67
2022/11/21 10:18:59;;;;;;;2.97;1.30;;;9.70;70.90;;;;;;5019717;28;20105;-66
2022/11/21 10:21:41;;;;;;;2.47;1.08;;;9.80;70.90;;;;;;5016110;28;20108;-65
2022/11/21 10:24:18;;;;;;;4.10;1.00;;;10.00;71.30;;;;;;5063130;28;20116;-67
2022/11/21 10:26:55;;;;;;;5.45;1.35;;;10.20;70.50;;;;;;5086912;28;20028;-67
2022/11/21 10:29:40;;;;;;;6.40;1.40;;;10.40;70.80;;;;;;5074486;28;20040;-67
2022/11/21 10:32:37;;;;;;;4.32;1.70;;;10.50;68.70;;;;;;5069589;28;20028;-66
2022/11/21 10:35:22;;;;;;;7.05;1.23;;;10.60;66.00;;;;;;5071058;28;20502;-67
2022/11/21 10:37:53;;;;;;;4.53;1.60;;;10.70;67.10;;;;;;5087996;28;20021;-66
2022/11/21 10:40:43;;;;;;;9.57;1.67;;;10.70;67.50;;;;;;5076351;28;20085;-68
2022/11/21 10:46:28;;;;;;;3.90;1.42;;;10.70;66.40;;;;;;5089102;28;20043;-67
2022/11/21 10:49:03;;;;;;;7.20;1.63;;;10.60;66.80;;;;;;5080214;28;20032;-67
2022/11/21 10:51:55;;;;;;;4.97;1.40;;;10.60;65.80;;;;;;5080806;28;20020;-66
2022/11/21 10:54:33;;;;;;;7.28;1.50;;;10.50;65.90;;;;;;5078301;28;20130;-67
2022/11/21 10:57:16;;;;;;;6.18;1.40;;;10.50;66.30;;;;;;5076428;28;20028;-66
2022/11/21 10:59:58;;;;;;;2.88;1.20;;;10.50;66.10;;;;;;5080543;28;20031;-67
2022/11/21 11:02:25;;;;;;;2.80;1.10;;;10.50;65.80;;;;;;5076735;28;20054;-67
2022/11/21 11:05:18;;;;;;;8.23;1.85;;;10.50;65.90;;;;;;5091255;28;20028;-67
2022/11/21 11:08:03;;;;;;;6.95;1.42;;;10.50;64.50;;;;;;5089455;28;20039;-68
2022/11/21 11:10:32;;;;;;;4.47;1.58;;;10.40;63.40;;;;;;5080487;28;20017;-67
2022/11/21 11:16:14;;;;;;;;;;;10.40;65.40;;;;;;5099274;28;20038;-68
2022/11/21 11:19:07;;;;;;;7.13;1.50;;;10.40;65.00;;;;;;5058627;28;19909;-68
2022/11/21 11:21:39;;;;;;;4.45;1.35;;;10.40;65.50;;;;;;5086305;28;20076;-68
2022/11/21 11:24:11;;;;;;;4.68;1.42;;;10.50;65.70;;;;;;5086139;28;20021;-67
2022/11/21 11:27:00;;;;;;;4.68;1.25;;;10.50;65.70;;;;;;5082797;28;20024;-67
2022/11/21 11:29:33;;;;;;;4.70;1.10;;;10.50;65.80;;;;;;5076298;28;20027;-68
2022/11/21 11:32:17;;;;;;;6.10;1.15;;;10.50;66.30;;;;;;5085297;28;20029;-69
2022/11/21 11:34:56;;;;;;;3.80;1.33;;;10.60;65.90;;;;;;5077511;28;20056;-69
2022/11/21 11:37:34;;;;;;;4.35;1.00;;;10.70;65.20;;;;;;5085960;28;20381;-69
2022/11/21 11:40:18;;;;;;;5.22;1.30;;;10.80;65.50;;;;;;5084726;28;20088;-68
2022/11/21 11:49:02;;;;;;;3.28;1.42;;;11.20;63.90;;;;;;5090960;28;20063;-68
2022/11/21 11:51:35;;;;;;;5.93;1.33;;;11.40;64.80;;;;;;5079929;28;20029;-68
2022/11/21 11:54:17;;;;;;;6.68;1.58;;;11.50;64.20;;;;;;5079984;28;20032;-68
2022/11/21 11:56:43;;;;;;;7.03;1.40;;;11.60;63.50;;;;;;5083486;28;20052;-68
2022/11/21 11:59:35;;;;;;;4.75;1.27;;;11.60;63.40;;;;;;5083998;28;20033;-68
2022/11/21 12:02:19;;;;;;;4.18;1.48;;;11.50;62.30;;;;;;5070313;28;20052;-68
2022/11/21 12:05:08;;;;;;;2.25;1.33;;;11.50;61.20;;;;;;5087239;28;20113;-68
2022/11/21 12:07:39;;;;;;;3.80;1.10;;;11.40;62.10;;;;;;5078328;28;20028;-68
2022/11/21 12:10:14;;;;;;;2.38;1.08;;;11.30;62.50;;;;;;5089951;28;20016;-70
2022/11/21 12:12:46;;;;;;;6.18;1.38;;;11.30;63.10;;;;;;5082618;28;20580;-68
2022/11/21 12:18:17;;;;;;;7.90;1.80;;;11.40;62.70;;;;;;5077276;28;20399;-68
2022/11/21 12:21:01;;;;;;;8.43;1.15;;;11.30;61.70;;;;;;5077989;28;20086;-68
2022/11/21 12:23:35;;;;;;;6.80;1.70;;;11.30;62.50;;;;;;5089317;28;20032;-68
2022/11/21 12:26:17;;;;;;;6.15;1.33;;;11.30;62.30;;;;;;5100771;28;20085;-68
2022/11/21 12:29:04;;;;;;;4.22;1.60;;;11.20;60.60;;;;;;5090140;28;20083;-69
2022/11/21 12:31:54;;;;;;;3.95;1.42;;;11.30;60.10;;;;;;5082121;28;20076;-68
2022/11/21 12:34:37;;;;;;;4.05;1.33;;;11.40;62.20;;;;;;5087232;28;20045;-69
2022/11/21 12:37:18;;;;;;;4.07;1.30;;;11.50;62.40;;;;;;5086178;28;20042;-68
2022/11/21 12:39:59;;;;;;;3.95;1.15;;;11.60;62.40;;;;;;5081831;28;20046;-68
2022/11/21 12:45:27;;;;;;;6.82;0.98;;;12.00;62.40;;;;;;5080092;28;20088;-68
2022/11/21 12:54:56;;;;;;;9.30;1.45;;;12.40;59.30;;;;;;5087777;28;20671;-68
2022/11/21 12:57:34;;;;;;;4.18;1.35;;;12.40;59.00;;;;;;5083180;28;20035;-68
2022/11/21 13:00:31;;;;;;;2.83;1.17;;;12.30;59.90;;;;;;5085292;28;20017;-68
2022/11/21 13:03:22;;;;;;;4.38;1.40;;;12.30;58.80;;;;;;5082840;28;20066;-68
2022/11/21 13:05:51;;;;;;;3.28;1.35;;;12.30;59.40;;;;;;5088206;28;20034;-66
2022/11/21 13:08:21;;;;;;;7.88;1.77;;;12.30;60.90;;;;;;5078926;28;20051;-67
2022/11/21 13:14:06;;;;;;;4.13;1.20;;;12.30;59.20;;;;;;5074146;28;20123;-68
2022/11/21 13:16:36;;;;;;;6.75;1.50;;;12.20;59.50;;;;;;5082185;28;20029;-69
2022/11/21 13:19:23;;;;;;;3.45;1.30;;;12.10;59.30;;;;;;5089912;28;20028;-68
2022/11/21 13:21:52;;;;;;;5.40;1.40;;;12.00;59.00;;;;;;5079503;28;20465;-68
2022/11/21 13:24:46;;;;;;;5.05;1.55;;;11.90;59.60;;;;;;5085722;28;20019;-68
2022/11/21 13:27:31;;;;;;;14.88;5.95;;;11.80;59.40;;;;;;5081121;28;20016;-67
2022/11/21 13:30:21;;;;;;;5.53;2.83;;;11.60;59.20;;;;;;5091716;28;20039;-68
2022/11/21 13:32:54;;;;;;;10.23;3.97;;;11.60;59.20;;;;;;5080621;28;20034;-68
2022/11/21 13:35:20;;;;;;;10.70;3.95;;;11.50;59.90;;;;;;5085621;28;20447;-68
2022/11/21 13:37:48;;;;;;;5.82;2.70;;;11.40;60.50;;;;;;5083323;28;20028;-68
2022/11/21 13:40:26;;;;;;;6.13;2.17;;;11.40;60.60;;;;;;5098274;28;20020;-67
2022/11/21 13:43:19;;;;;;;5.72;1.73;;;11.40;60.70;;;;;;5087034;28;20035;-68
2022/11/21 13:45:48;;;;;;;11.50;6.50;;;11.40;61.00;;;;;;5078577;28;20503;-68
2022/11/21 13:48:29;;;;;;;8.25;3.40;;;11.40;61.80;;;;;;5082930;28;20048;-67
2022/11/21 13:51:07;;;;;;;9.88;2.20;;;11.50;61.40;;;;;;5087391;28;20020;-68
2022/11/21 13:54:10;;;;;;;4.18;1.70;;;11.50;61.30;;;;;;5073567;28;20047;-68
2022/11/21 13:56:36;;;;;;;7.93;5.85;;;11.60;60.60;;;;;;5080079;28;20472;-68